Latest Coastal Weather Observations for Groote Eylandt Airport

IDD60701

Issued at 9:51 pm CST Tuesday 17 September 2019 (issued every 10 minutes, with the page automatically refreshed every 10 minutes)

About coastal observations | Map of coastal stations | Coastal observations for NT | Marine services | Other Formats
Station Details ID: 014518 Name: GROOTE EYLANDT AIRPORT Lat: -13.97 Lon: 136.46 Height: 13.7 m
Data from the previous 72 hours. | See also: Recent months at Groote Eylandt Airport
Date/Time
CST
Wind Sea
Height
m
Swell Vis
km
Cloud Weather Temp
°C
Press
hPa
Rain since
9am
mm
Dir  Spd
kts
Gust
kts
Height
m
Period
s
Dir
17/09:30pm E 3 4 - - - - 10 - - 19.6 1017.1 0.0
17/09:00pm E 3 4 - - - - 10 - Showers 20.6 1017.1 0.0
17/08:30pm CALM 0 0 - - - - 10 - - 21.3 1016.8 0.0
17/08:00pm ESE 2 4 - - - - 10 - - 22.1 1016.4 0.0
17/07:30pm E 4 4 - - - - 10 - - 23.6 1015.9 0.0
17/07:00pm ESE 2 4 - - - - 10 - - 24.5 1015.6 0.0
17/06:30pm CALM 0 3 - - - - 10 - - 25.2 1015.4 0.0
17/06:01pm WNW 3 6 - - - - 10 - - 26.7 1015.0 0.0
17/06:00pm WNW 3 7 - - - - 9 - Showers 26.7 1015.0 0.0
17/05:30pm WNW 6 9 - - - - 5 - - 27.5 1014.8 0.0
17/05:13pm NW 9 11 - - - - 5 - - 27.9 1014.5 0.0
17/05:00pm NW 9 12 - - - - 10 - - 28.3 1014.4 0.0
17/04:30pm NW 9 11 - - - - 10 - - 29.1 1014.3 0.0
17/04:00pm NW 11 14 - - - - 10 - - 28.8 1014.3 0.0
17/03:30pm NW 11 17 - - - - 10 - - 29.1 1014.3 0.0
17/03:00pm NW 11 14 - - - - 10 - - 28.9 1014.7 0.0
17/02:30pm WNW 9 13 - - - - 10 - - 29.6 1014.9 0.0
17/02:00pm NW 10 14 - - - - 10 - - 29.4 1015.3 0.0
17/01:30pm WNW 9 13 - - - - 10 - - 28.5 1015.8 0.0
17/01:00pm NW 10 14 - - - - 10 - - 29.1 1016.2 0.0
17/12:30pm WNW 7 13 - - - - 10 - - 29.7 1016.4 0.0
17/12:00pm ENE 7 12 - - - - 10 - - 30.9 1016.8 0.0
17/11:30am NE 7 10 - - - - 10 - - 29.9 1017.2 0.0
17/11:00am E 7 13 - - - - 10 - - 29.4 1017.6 0.0
17/10:30am E 9 15 - - - - 10 - - 29.3 1018.1 0.0
17/10:00am NE 8 11 - - - - 10 - - 28.3 1018.2 0.0
17/09:30am ESE 6 10 - - - - 10 - - 28.3 1018.2 0.0
17/09:00am ESE 6 10 - - - - 10 - - 26.8 1018.1 0.0
17/08:30am ENE 4 6 - - - - 10 - - 23.9 1017.9 0.0
17/08:00am E 4 4 - - - - 10 - - 21.8 1017.6 0.0
17/07:30am E 4 5 - - - - 10 - - 18.6 1017.1 0.0
17/07:00am CALM 0 0 - - - - 10 - - 15.6 1016.7 0.0
17/06:30am CALM 0 0 - - - - 10 - - 14.3 1016.4 0.0
17/06:00am E 3 4 - - - - 10 - - 14.3 1016.1 0.0
17/05:30am CALM 0 0 - - - - 10 - - 14.8 1015.9 0.0
17/05:00am CALM 0 0 - - - - 10 - - 14.8 1015.5 0.0
17/04:30am CALM 0 0 - - - - 10 - - 14.7 1015.2 0.0
17/04:00am CALM 0 0 - - - - 10 - - 14.8 1015.0 0.0
17/03:30am CALM 0 0 - - - - 10 - - 15.6 1014.8 0.0
17/03:00am CALM 0 0 - - - - 10 - - 15.4 1014.8 0.0
17/02:30am E 2 4 - - - - 10 - - 15.7 1014.9 0.0
17/02:00am CALM 0 3 - - - - 10 - - 16.3 1015.1 0.0
17/01:30am CALM 0 0 - - - - 10 - - 16.4 1015.4 0.0
17/01:00am CALM 0 0 - - - - 10 - - 16.7 1015.5 0.0
17/12:30am CALM 0 0 - - - - 10 - - 17.0 1015.7 0.0
17/12:00am CALM 0 0 - - - - 10 - - 17.3 1016.0 0.0
 
Date/Time
CST
Wind Sea
Height
m
Swell Vis
km
Cloud Weather Temp
°C
Press
hPa
Rain since
9am
mm
Dir  Spd
kts
Gust
kts
Height
m
Period
s
Dir
16/11:30pm ESE 3 4 - - - - 10 - - 17.9 1016.2 0.0
16/11:00pm ESE 3 4 - - - - 10 - - 18.5 1016.3 0.0
16/10:30pm ESE 4 5 - - - - 10 - - 19.2 1016.3 0.0
16/10:00pm ESE 4 5 - - - - 10 - - 19.5 1016.3 0.0
16/09:30pm ESE 3 5 - - - - 10 - - 20.1 1016.3 0.0
16/09:00pm SE 3 6 - - - - 10 - - 21.0 1016.2 0.0
16/08:30pm ESE 4 5 - - - - 10 - - 21.0 1015.9 0.0
16/08:00pm E 3 4 - - - - 10 - - 21.7 1015.7 0.0
16/07:30pm E 2 4 - - - - 10 - - 23.2 1015.5 0.0
16/07:00pm E 4 5 - - - - 10 - - 24.1 1015.1 0.0
16/06:30pm ESE 5 8 - - - - 10 - - 25.1 1014.8 0.0
16/06:00pm ESE 5 9 - - - - 10 - - 26.0 1014.7 0.0
16/05:30pm E 7 10 - - - - 10 - - 26.9 1014.4 0.0
16/05:00pm E 9 12 - - - - 10 - - 27.9 1014.3 0.0
16/04:30pm E 10 14 - - - - 10 - - 28.1 1014.5 0.0
16/04:00pm ESE 8 12 - - - - 10 - - 28.6 1014.5 0.0
16/03:30pm E 11 16 - - - - 10 - - 29.0 1014.5 0.0
16/03:00pm E 11 15 - - - - 10 - - 29.1 1014.7 0.0
16/02:30pm E 11 15 - - - - 10 - - 29.6 1014.8 0.0
16/02:00pm ENE 12 16 - - - - 10 - - 29.5 1015.1 0.0
16/01:30pm ENE 13 19 - - - - 10 - - 29.3 1015.4 0.0
16/01:00pm E 10 17 - - - - 10 - - 29.8 1015.7 0.0
16/12:30pm ESE 12 16 - - - - 10 - - 29.0 1016.2 0.0
16/12:00pm ENE 12 17 - - - - 10 - - 29.3 1016.7 0.0
16/11:30am E 10 18 - - - - 10 - - 28.4 1017.1 0.0
16/11:00am E 11 17 - - - - 10 - - 28.1 1017.5 0.0
16/10:30am E 12 17 - - - - 10 - - 28.0 1017.8 0.0
16/10:00am E 12 17 - - - - 10 - - 27.7 1017.8 0.0
16/09:30am E 9 14 - - - - 10 - - 26.6 1017.8 0.0
16/09:00am E 9 13 - - - - 10 - - 25.9 1017.7 0.0
16/08:30am ESE 4 6 - - - - 10 - - 23.5 1017.7 0.0
16/08:00am CALM 0 0 - - - - 10 - - 20.2 1017.5 0.0
16/07:30am E 2 3 - - - - 10 - - 17.8 1017.2 0.0
16/07:00am CALM 0 0 - - - - 10 - - 16.2 1016.8 0.0
16/06:30am E 3 4 - - - - 10 - - 15.3 1016.4 0.0
16/06:00am CALM 0 0 - - - - 10 - - 15.2 1016.2 0.0
16/05:30am CALM 0 0 - - - - 10 - - 15.2 1015.9 0.0
16/05:00am E 2 5 - - - - 10 - - 15.3 1015.8 0.0
16/04:30am CALM 0 0 - - - - 10 - - 15.2 1015.8 0.0
16/04:00am CALM 0 0 - - - - 10 - - 15.4 1015.6 0.0
16/03:30am CALM 0 0 - - - - 10 - - 15.3 1015.5 0.0
16/03:00am CALM 0 0 - - - - 10 - - 15.3 1015.5 0.0
16/02:30am CALM 0 0 - - - - 10 - - 15.6 1015.7 0.0
16/02:00am CALM 0 0 - - - - 10 - - 15.6 1015.8 0.0
16/01:30am CALM 0 0 - - - - 10 - - 15.8 1016.0 0.0
16/01:00am E 3 4 - - - - 10 - - 15.8 1016.2 0.0
16/12:30am CALM 0 0 - - - - 10 - - 16.3 1016.4 0.0
16/12:00am CALM 0 0 - - - - 10 - - 17.0 1016.5 0.0
 
Date/Time
CST
Wind Sea
Height
m
Swell Vis
km
Cloud Weather Temp
°C
Press
hPa
Rain since
9am
mm
Dir  Spd
kts
Gust
kts
Height
m
Period
s
Dir
15/11:30pm CALM 0 0 - - - - 10 - - 17.3 1016.5 0.0
15/11:00pm CALM 0 0 - - - - 10 - - 17.6 1016.7 0.0
15/10:30pm CALM 0 0 - - - - 10 - - 18.4 1016.6 0.0
15/10:00pm CALM 0 0 - - - - 10 - - 18.9 1016.8 0.0
15/09:30pm CALM 0 0 - - - - 10 - - 19.4 1016.9 0.0
15/09:00pm CALM 0 2 - - - - 10 - - 20.3 1016.9 0.0
15/08:30pm E 4 5 - - - - 10 - - 21.4 1016.7 0.0
15/08:00pm E 5 6 - - - - 10 - - 21.8 1016.4 0.0
15/07:30pm ESE 1 3 - - - - 10 - - 22.5 1015.9 0.0
15/07:00pm SE 4 5 - - - - 10 - - 23.8 1015.6 0.0
15/06:30pm SE 4 6 - - - - 10 - - 25.1 1015.4 0.0
15/06:00pm SE 4 7 - - - - 10 - - 26.5 1014.9 0.0
15/05:30pm SE 6 11 - - - - 10 - - 27.2 1014.8 0.0
15/05:00pm ENE 10 15 - - - - 10 - - 28.0 1014.6 0.0
15/04:30pm E 11 16 - - - - 10 - - 28.8 1014.4 0.0
15/04:00pm ENE 12 15 - - - - 10 - - 29.5 1014.3 0.0
15/03:30pm E 11 16 - - - - 10 - - 29.5 1014.3 0.0
15/03:00pm NE 7 15 - - - - 10 - - 29.7 1014.4 0.0
15/02:30pm ENE 10 17 - - - - 10 - - 29.7 1014.7 0.0
15/02:00pm E 11 16 - - - - 10 - - 29.6 1014.8 0.0
15/01:30pm ESE 9 15 - - - - 10 - - 29.9 1015.1 0.0
15/01:00pm E 10 16 - - - - 10 - - 30.6 1015.4 0.0
15/12:30pm E 11 16 - - - - 10 - - 30.2 1015.9 0.0
15/12:00pm E 12 17 - - - - 10 - - 30.0 1016.4 0.0
15/11:30am E 14 19 - - - - 10 - - 30.3 1016.7 0.0
15/11:00am ESE 10 20 - - - - 10 - - 29.5 1017.0 0.0
15/10:30am ESE 9 26 - - - - 10 - - 28.0 1017.3 0.0
15/10:00am ENE 7 11 - - - - 10 - - 29.9 1017.5 0.0
15/09:30am E 11 15 - - - - 10 - - 28.0 1017.6 0.0
15/09:00am ENE 9 14 - - - - 10 - - 27.6 1017.5 0.0
15/08:30am ENE 9 12 - - - - 10 - - 26.5 1017.3 0.0
15/08:00am ENE 6 9 - - - - 10 - - 25.3 1017.0 0.0
15/07:30am E 4 6 - - - - 10 - - 21.6 1017.0 0.0
15/07:00am ESE 4 5 - - - - 10 - - 17.1 1016.9 0.0
15/06:30am E 3 4 - - - - 10 - - 15.6 1016.5 0.0
15/06:00am E 4 4 - - - - 10 - - 15.7 1016.0 0.0
15/05:30am NE 2 5 - - - - 10 - - 15.9 1015.7 0.0
15/05:00am E 2 4 - - - - 10 - - 15.9 1015.3 0.0
15/04:30am E 1 4 - - - - 10 - - 15.7 1015.2 0.0
15/04:00am E 4 4 - - - - 10 - - 14.8 1014.9 0.0
15/03:30am E 2 4 - - - - 10 - - 14.8 1014.9 0.0
15/03:00am ESE 2 4 - - - - 10 - - 14.5 1015.1 0.0
15/02:30am CALM 0 0 - - - - 10 - - 14.4 1015.4 0.0
15/02:00am CALM 0 0 - - - - 10 - - 14.7 1015.7 0.0
15/01:30am CALM 0 0 - - - - 10 - - 15.1 1016.0 0.0
15/01:00am CALM 0 0 - - - - 10 - - 15.1 1016.3 0.0
15/12:30am ESE 1 3 - - - - 10 - - 15.5 1016.7 0.0
15/12:00am CALM 0 0 - - - - 10 - - 15.8 1016.9 0.0
 
Date/Time
CST
Wind Sea
Height
m
Swell Vis
km
Cloud Weather Temp
°C
Press
hPa
Rain since
9am
mm
Dir  Spd
kts
Gust
kts
Height
m
Period
s
Dir
14/11:30pm ESE 2 3 - - - - 10 - - 17.0 1017.2 0.0
14/11:00pm CALM 0 0 - - - - 10 - - 17.5 1017.5 0.0
14/10:30pm CALM 0 0 - - - - 10 - - 17.8 1017.7 0.0
14/10:00pm CALM 0 0 - - - - 10 - - 18.1 1017.8 0.0

Other formats

Comma delimited format used in spreadsheet applications
http://www.bom.gov.au/fwo/IDD60701/IDD60701.94153.axf

JavaScript Object Notation format (JSON) in row-major order
http://www.bom.gov.au/fwo/IDD60701/IDD60701.94153.json

Data quality

Most of these data are generated automatically and are frequently updated. Quality checks on data are not normally performed. It is possible for incorrect values to appear. Refer to information at About Latest Weather Observations and please check the disclaimer before using these data.